sensor_id;sensor_type;location;lat;lon;timestamp;P1;durP1;ratioP1;P2;durP2;ratioP2
77018;SDS011;66044;53.142;17.962;2023-07-13T00:02:16;6.30;;;3.30;;
77018;SDS011;66044;53.142;17.962;2023-07-13T00:04:42;7.40;;;3.70;;
77018;SDS011;66044;53.142;17.962;2023-07-13T00:07:09;6.30;;;3.30;;
77018;SDS011;66044;53.142;17.962;2023-07-13T00:09:35;6.20;;;3.40;;
77018;SDS011;66044;53.142;17.962;2023-07-13T00:12:02;7.30;;;3.70;;
77018;SDS011;66044;53.142;17.962;2023-07-13T00:14:29;9.30;;;4.20;;
77018;SDS011;66044;53.142;17.962;2023-07-13T00:16:55;7.60;;;4.10;;
77018;SDS011;66044;53.142;17.962;2023-07-13T00:19:22;7.20;;;4.00;;
77018;SDS011;66044;53.142;17.962;2023-07-13T00:21:48;7.10;;;3.80;;
77018;SDS011;66044;53.142;17.962;2023-07-13T00:24:16;7.60;;;4.20;;
77018;SDS011;66044;53.142;17.962;2023-07-13T00:26:49;7.00;;;3.90;;
77018;SDS011;66044;53.142;17.962;2023-07-13T00:29:15;8.40;;;3.60;;
77018;SDS011;66044;53.142;17.962;2023-07-13T00:31:42;8.40;;;4.40;;
77018;SDS011;66044;53.142;17.962;2023-07-13T00:34:10;7.60;;;3.80;;
77018;SDS011;66044;53.142;17.962;2023-07-13T00:36:36;7.80;;;3.80;;
77018;SDS011;66044;53.142;17.962;2023-07-13T00:39:03;7.80;;;4.30;;
77018;SDS011;66044;53.142;17.962;2023-07-13T00:41:30;9.40;;;4.40;;
77018;SDS011;66044;53.142;17.962;2023-07-13T00:43:57;8.30;;;4.50;;
77018;SDS011;66044;53.142;17.962;2023-07-13T00:46:25;8.10;;;4.60;;
77018;SDS011;66044;53.142;17.962;2023-07-13T00:48:54;7.30;;;4.00;;
77018;SDS011;66044;53.142;17.962;2023-07-13T00:51:27;9.20;;;4.60;;
77018;SDS011;66044;53.142;17.962;2023-07-13T00:53:58;8.60;;;4.10;;
77018;SDS011;66044;53.142;17.962;2023-07-13T00:56:27;7.70;;;4.30;;
77018;SDS011;66044;53.142;17.962;2023-07-13T00:58:55;8.40;;;4.50;;
77018;SDS011;66044;53.142;17.962;2023-07-13T01:01:22;16.00;;;4.90;;
77018;SDS011;66044;53.142;17.962;2023-07-13T01:03:49;7.80;;;4.30;;
77018;SDS011;66044;53.142;17.962;2023-07-13T01:06:16;8.50;;;4.50;;
77018;SDS011;66044;53.142;17.962;2023-07-13T01:08:43;7.20;;;3.90;;
77018;SDS011;66044;53.142;17.962;2023-07-13T01:11:10;7.90;;;4.50;;
77018;SDS011;66044;53.142;17.962;2023-07-13T01:13:36;7.60;;;4.00;;
77018;SDS011;66044;53.142;17.962;2023-07-13T01:16:04;8.40;;;4.10;;
77018;SDS011;66044;53.142;17.962;2023-07-13T01:18:39;7.30;;;3.80;;
77018;SDS011;66044;53.142;17.962;2023-07-13T01:21:06;8.60;;;4.50;;
77018;SDS011;66044;53.142;17.962;2023-07-13T01:23:32;7.90;;;4.10;;
77018;SDS011;66044;53.142;17.962;2023-07-13T01:25:59;7.90;;;4.60;;
77018;SDS011;66044;53.142;17.962;2023-07-13T01:28:26;8.30;;;4.80;;
77018;SDS011;66044;53.142;17.962;2023-07-13T01:30:55;7.50;;;4.40;;
77018;SDS011;66044;53.142;17.962;2023-07-13T01:33:24;7.70;;;4.10;;
77018;SDS011;66044;53.142;17.962;2023-07-13T01:35:51;13.10;;;4.20;;
77018;SDS011;66044;53.142;17.962;2023-07-13T01:38:18;8.10;;;4.90;;
77018;SDS011;66044;53.142;17.962;2023-07-13T01:40:47;10.50;;;4.50;;
77018;SDS011;66044;53.142;17.962;2023-07-13T01:43:13;8.10;;;4.60;;
77018;SDS011;66044;53.142;17.962;2023-07-13T01:45:40;8.90;;;5.20;;
77018;SDS011;66044;53.142;17.962;2023-07-13T01:48:06;8.30;;;4.70;;
77018;SDS011;66044;53.142;17.962;2023-07-13T01:50:33;10.20;;;4.80;;
77018;SDS011;66044;53.142;17.962;2023-07-13T01:53:00;9.90;;;4.40;;
77018;SDS011;66044;53.142;17.962;2023-07-13T01:55:28;9.50;;;4.60;;
77018;SDS011;66044;53.142;17.962;2023-07-13T01:57:55;8.10;;;4.40;;
77018;SDS011;66044;53.142;17.962;2023-07-13T02:00:22;9.80;;;4.30;;
77018;SDS011;66044;53.142;17.962;2023-07-13T02:02:48;9.60;;;5.10;;
77018;SDS011;66044;53.142;17.962;2023-07-13T02:05:15;8.20;;;4.60;;
77018;SDS011;66044;53.142;17.962;2023-07-13T02:07:42;8.50;;;4.60;;
77018;SDS011;66044;53.142;17.962;2023-07-13T02:10:09;9.10;;;4.80;;
77018;SDS011;66044;53.142;17.962;2023-07-13T02:12:36;8.60;;;4.90;;
77018;SDS011;66044;53.142;17.962;2023-07-13T02:15:04;8.20;;;4.50;;
77018;SDS011;66044;53.142;17.962;2023-07-13T02:17:31;8.50;;;4.80;;
77018;SDS011;66044;53.142;17.962;2023-07-13T02:19:58;11.30;;;4.30;;
77018;SDS011;66044;53.142;17.962;2023-07-13T02:22:24;9.00;;;5.10;;
77018;SDS011;66044;53.142;17.962;2023-07-13T02:24:51;11.80;;;6.00;;
77018;SDS011;66044;53.142;17.962;2023-07-13T02:27:18;9.40;;;5.60;;
77018;SDS011;66044;53.142;17.962;2023-07-13T02:29:44;9.90;;;5.90;;
77018;SDS011;66044;53.142;17.962;2023-07-13T02:32:11;10.70;;;5.90;;
77018;SDS011;66044;53.142;17.962;2023-07-13T02:34:40;9.30;;;5.60;;
77018;SDS011;66044;53.142;17.962;2023-07-13T02:37:08;10.40;;;5.10;;
77018;SDS011;66044;53.142;17.962;2023-07-13T02:39:34;9.60;;;4.90;;
77018;SDS011;66044;53.142;17.962;2023-07-13T02:42:01;9.40;;;5.10;;
77018;SDS011;66044;53.142;17.962;2023-07-13T02:44:27;9.60;;;5.30;;
77018;SDS011;66044;53.142;17.962;2023-07-13T02:46:54;8.60;;;5.00;;
77018;SDS011;66044;53.142;17.962;2023-07-13T02:49:20;10.00;;;5.00;;
77018;SDS011;66044;53.142;17.962;2023-07-13T02:51:47;9.80;;;4.90;;
77018;SDS011;66044;53.142;17.962;2023-07-13T02:54:13;10.40;;;5.20;;
77018;SDS011;66044;53.142;17.962;2023-07-13T02:56:40;9.60;;;4.60;;
77018;SDS011;66044;53.142;17.962;2023-07-13T02:59:07;7.50;;;4.20;;
77018;SDS011;66044;53.142;17.962;2023-07-13T03:01:33;9.40;;;4.70;;
77018;SDS011;66044;53.142;17.962;2023-07-13T03:04:02;8.10;;;4.80;;
77018;SDS011;66044;53.142;17.962;2023-07-13T03:06:30;8.20;;;4.90;;
77018;SDS011;66044;53.142;17.962;2023-07-13T03:08:58;8.20;;;4.70;;
77018;SDS011;66044;53.142;17.962;2023-07-13T03:11:24;8.60;;;4.80;;
77018;SDS011;66044;53.142;17.962;2023-07-13T03:13:51;7.90;;;4.30;;
77018;SDS011;66044;53.142;17.962;2023-07-13T03:16:18;8.80;;;4.80;;
77018;SDS011;66044;53.142;17.962;2023-07-13T03:18:45;7.90;;;4.20;;
77018;SDS011;66044;53.142;17.962;2023-07-13T03:21:12;11.60;;;4.60;;
77018;SDS011;66044;53.142;17.962;2023-07-13T03:23:39;8.10;;;4.60;;
77018;SDS011;66044;53.142;17.962;2023-07-13T03:26:08;7.50;;;3.90;;
77018;SDS011;66044;53.142;17.962;2023-07-13T03:28:36;9.50;;;4.40;;
77018;SDS011;66044;53.142;17.962;2023-07-13T03:31:04;8.60;;;4.70;;
77018;SDS011;66044;53.142;17.962;2023-07-13T03:33:33;8.30;;;4.70;;
77018;SDS011;66044;53.142;17.962;2023-07-13T03:36:00;8.30;;;4.80;;
77018;SDS011;66044;53.142;17.962;2023-07-13T03:38:26;8.90;;;4.40;;
77018;SDS011;66044;53.142;17.962;2023-07-13T03:40:53;9.00;;;5.00;;
77018;SDS011;66044;53.142;17.962;2023-07-13T03:43:19;8.30;;;5.10;;
77018;SDS011;66044;53.142;17.962;2023-07-13T03:45:46;9.70;;;5.00;;
77018;SDS011;66044;53.142;17.962;2023-07-13T03:48:13;7.90;;;4.40;;
77018;SDS011;66044;53.142;17.962;2023-07-13T03:50:40;9.70;;;4.70;;
77018;SDS011;66044;53.142;17.962;2023-07-13T03:53:07;10.00;;;4.90;;
77018;SDS011;66044;53.142;17.962;2023-07-13T03:55:34;8.00;;;4.40;;
77018;SDS011;66044;53.142;17.962;2023-07-13T03:58:22;8.70;;;4.70;;
77018;SDS011;66044;53.142;17.962;2023-07-13T04:01:06;7.70;;;4.40;;
77018;SDS011;66044;53.142;17.962;2023-07-13T04:03:34;8.10;;;4.80;;
77018;SDS011;66044;53.142;17.962;2023-07-13T04:06:02;9.30;;;4.90;;
77018;SDS011;66044;53.142;17.962;2023-07-13T04:08:32;10.40;;;5.30;;
77018;SDS011;66044;53.142;17.962;2023-07-13T04:11:01;10.20;;;5.30;;
77018;SDS011;66044;53.142;17.962;2023-07-13T04:13:29;8.70;;;4.80;;
77018;SDS011;66044;53.142;17.962;2023-07-13T04:15:56;7.90;;;5.00;;
77018;SDS011;66044;53.142;17.962;2023-07-13T04:18:23;10.10;;;5.10;;
77018;SDS011;66044;53.142;17.962;2023-07-13T04:20:50;10.90;;;5.20;;
77018;SDS011;66044;53.142;17.962;2023-07-13T04:23:17;12.10;;;5.20;;
77018;SDS011;66044;53.142;17.962;2023-07-13T04:25:44;10.80;;;5.20;;
77018;SDS011;66044;53.142;17.962;2023-07-13T04:28:11;9.60;;;5.10;;
77018;SDS011;66044;53.142;17.962;2023-07-13T04:30:38;9.50;;;5.40;;
77018;SDS011;66044;53.142;17.962;2023-07-13T04:33:05;9.30;;;4.70;;
77018;SDS011;66044;53.142;17.962;2023-07-13T04:35:31;9.40;;;4.90;;
77018;SDS011;66044;53.142;17.962;2023-07-13T04:37:57;9.50;;;5.30;;
77018;SDS011;66044;53.142;17.962;2023-07-13T04:40:24;9.10;;;4.40;;
77018;SDS011;66044;53.142;17.962;2023-07-13T04:42:53;8.60;;;4.40;;
77018;SDS011;66044;53.142;17.962;2023-07-13T04:45:20;8.10;;;4.30;;
77018;SDS011;66044;53.142;17.962;2023-07-13T04:47:47;8.60;;;4.30;;
77018;SDS011;66044;53.142;17.962;2023-07-13T04:50:13;9.80;;;4.20;;
77018;SDS011;66044;53.142;17.962;2023-07-13T04:52:47;8.20;;;3.90;;
77018;SDS011;66044;53.142;17.962;2023-07-13T04:55:13;6.70;;;3.30;;
77018;SDS011;66044;53.142;17.962;2023-07-13T04:57:40;7.80;;;4.10;;
77018;SDS011;66044;53.142;17.962;2023-07-13T05:00:07;9.90;;;3.40;;
77018;SDS011;66044;53.142;17.962;2023-07-13T05:02:34;6.50;;;3.20;;
77018;SDS011;66044;53.142;17.962;2023-07-13T05:05:01;8.30;;;3.80;;
77018;SDS011;66044;53.142;17.962;2023-07-13T05:07:29;8.40;;;3.70;;
77018;SDS011;66044;53.142;17.962;2023-07-13T05:09:56;10.20;;;4.20;;
77018;SDS011;66044;53.142;17.962;2023-07-13T05:12:22;6.90;;;3.60;;
77018;SDS011;66044;53.142;17.962;2023-07-13T05:14:49;9.90;;;3.70;;
77018;SDS011;66044;53.142;17.962;2023-07-13T05:17:15;8.80;;;3.50;;
77018;SDS011;66044;53.142;17.962;2023-07-13T05:19:43;9.50;;;3.70;;
77018;SDS011;66044;53.142;17.962;2023-07-13T05:22:09;7.20;;;3.40;;
77018;SDS011;66044;53.142;17.962;2023-07-13T05:24:36;8.20;;;3.20;;
77018;SDS011;66044;53.142;17.962;2023-07-13T05:27:03;9.40;;;3.40;;
77018;SDS011;66044;53.142;17.962;2023-07-13T05:29:30;9.80;;;2.80;;
77018;SDS011;66044;53.142;17.962;2023-07-13T05:31:56;6.40;;;2.40;;
77018;SDS011;66044;53.142;17.962;2023-07-13T05:34:23;7.60;;;2.20;;
77018;SDS011;66044;53.142;17.962;2023-07-13T05:36:50;7.60;;;2.20;;
77018;SDS011;66044;53.142;17.962;2023-07-13T05:39:16;6.90;;;1.80;;
77018;SDS011;66044;53.142;17.962;2023-07-13T05:41:43;4.80;;;1.90;;
77018;SDS011;66044;53.142;17.962;2023-07-13T05:44:09;6.80;;;2.00;;
77018;SDS011;66044;53.142;17.962;2023-07-13T05:46:36;7.10;;;2.00;;
77018;SDS011;66044;53.142;17.962;2023-07-13T05:49:02;9.90;;;2.20;;
77018;SDS011;66044;53.142;17.962;2023-07-13T05:51:29;6.80;;;1.60;;
77018;SDS011;66044;53.142;17.962;2023-07-13T05:53:55;6.50;;;1.60;;
77018;SDS011;66044;53.142;17.962;2023-07-13T05:56:22;8.40;;;1.60;;
77018;SDS011;66044;53.142;17.962;2023-07-13T05:58:49;8.30;;;1.40;;
77018;SDS011;66044;53.142;17.962;2023-07-13T06:01:15;5.20;;;1.60;;
77018;SDS011;66044;53.142;17.962;2023-07-13T06:03:43;6.30;;;1.50;;
77018;SDS011;66044;53.142;17.962;2023-07-13T06:06:10;5.60;;;1.70;;
77018;SDS011;66044;53.142;17.962;2023-07-13T06:08:37;6.40;;;1.90;;
77018;SDS011;66044;53.142;17.962;2023-07-13T06:11:07;5.80;;;1.80;;
77018;SDS011;66044;53.142;17.962;2023-07-13T06:13:38;6.40;;;1.60;;
77018;SDS011;66044;53.142;17.962;2023-07-13T06:16:05;5.80;;;1.60;;
77018;SDS011;66044;53.142;17.962;2023-07-13T06:18:32;6.10;;;1.30;;
77018;SDS011;66044;53.142;17.962;2023-07-13T06:21:00;6.80;;;1.60;;
77018;SDS011;66044;53.142;17.962;2023-07-13T06:23:26;6.30;;;1.90;;
77018;SDS011;66044;53.142;17.962;2023-07-13T06:25:53;4.90;;;1.40;;
77018;SDS011;66044;53.142;17.962;2023-07-13T06:28:19;4.70;;;1.30;;
77018;SDS011;66044;53.142;17.962;2023-07-13T06:30:46;5.80;;;1.70;;
77018;SDS011;66044;53.142;17.962;2023-07-13T06:33:12;6.80;;;1.20;;
77018;SDS011;66044;53.142;17.962;2023-07-13T06:35:39;8.80;;;1.40;;
77018;SDS011;66044;53.142;17.962;2023-07-13T06:38:05;5.10;;;1.40;;
77018;SDS011;66044;53.142;17.962;2023-07-13T06:40:32;5.80;;;1.60;;
77018;SDS011;66044;53.142;17.962;2023-07-13T06:42:58;6.60;;;1.30;;
77018;SDS011;66044;53.142;17.962;2023-07-13T06:45:25;6.60;;;1.30;;
77018;SDS011;66044;53.142;17.962;2023-07-13T06:47:51;6.70;;;1.50;;
77018;SDS011;66044;53.142;17.962;2023-07-13T06:50:18;7.30;;;1.50;;
77018;SDS011;66044;53.142;17.962;2023-07-13T06:52:44;6.50;;;1.50;;
77018;SDS011;66044;53.142;17.962;2023-07-13T06:55:11;8.60;;;1.40;;
77018;SDS011;66044;53.142;17.962;2023-07-13T06:57:37;6.70;;;1.40;;
77018;SDS011;66044;53.142;17.962;2023-07-13T07:00:04;5.50;;;1.30;;
77018;SDS011;66044;53.142;17.962;2023-07-13T07:02:32;5.70;;;1.40;;
77018;SDS011;66044;53.142;17.962;2023-07-13T07:04:59;7.10;;;1.40;;
77018;SDS011;66044;53.142;17.962;2023-07-13T07:07:25;6.80;;;1.50;;
77018;SDS011;66044;53.142;17.962;2023-07-13T07:09:52;5.30;;;1.40;;
77018;SDS011;66044;53.142;17.962;2023-07-13T07:12:18;4.80;;;1.30;;
77018;SDS011;66044;53.142;17.962;2023-07-13T07:14:44;5.40;;;1.20;;
77018;SDS011;66044;53.142;17.962;2023-07-13T07:17:11;6.20;;;1.50;;
77018;SDS011;66044;53.142;17.962;2023-07-13T07:19:37;7.10;;;1.40;;
77018;SDS011;66044;53.142;17.962;2023-07-13T07:22:04;5.60;;;1.20;;
77018;SDS011;66044;53.142;17.962;2023-07-13T07:24:31;5.40;;;1.20;;
77018;SDS011;66044;53.142;17.962;2023-07-13T07:26:57;6.40;;;1.50;;
77018;SDS011;66044;53.142;17.962;2023-07-13T07:29:24;6.00;;;1.40;;
77018;SDS011;66044;53.142;17.962;2023-07-13T07:31:52;4.60;;;1.20;;
77018;SDS011;66044;53.142;17.962;2023-07-13T07:34:19;5.80;;;1.50;;
77018;SDS011;66044;53.142;17.962;2023-07-13T07:36:46;4.60;;;1.10;;
77018;SDS011;66044;53.142;17.962;2023-07-13T07:39:12;6.50;;;1.30;;
77018;SDS011;66044;53.142;17.962;2023-07-13T07:41:39;5.80;;;1.20;;
77018;SDS011;66044;53.142;17.962;2023-07-13T07:44:05;5.20;;;1.20;;
77018;SDS011;66044;53.142;17.962;2023-07-13T07:46:33;4.30;;;0.90;;
77018;SDS011;66044;53.142;17.962;2023-07-13T07:49:00;5.40;;;1.30;;
77018;SDS011;66044;53.142;17.962;2023-07-13T07:51:26;7.60;;;1.80;;
77018;SDS011;66044;53.142;17.962;2023-07-13T07:53:52;5.30;;;1.10;;
77018;SDS011;66044;53.142;17.962;2023-07-13T07:56:19;6.70;;;0.90;;
77018;SDS011;66044;53.142;17.962;2023-07-13T07:58:46;5.70;;;1.00;;
77018;SDS011;66044;53.142;17.962;2023-07-13T08:01:12;6.50;;;1.20;;
77018;SDS011;66044;53.142;17.962;2023-07-13T08:03:38;7.20;;;1.60;;
77018;SDS011;66044;53.142;17.962;2023-07-13T08:06:05;6.20;;;1.10;;
77018;SDS011;66044;53.142;17.962;2023-07-13T08:08:31;7.60;;;1.40;;
77018;SDS011;66044;53.142;17.962;2023-07-13T08:10:58;6.50;;;1.40;;
77018;SDS011;66044;53.142;17.962;2023-07-13T08:13:29;5.90;;;1.40;;
77018;SDS011;66044;53.142;17.962;2023-07-13T08:15:55;7.70;;;1.40;;
77018;SDS011;66044;53.142;17.962;2023-07-13T08:18:22;4.90;;;0.90;;
77018;SDS011;66044;53.142;17.962;2023-07-13T08:20:48;5.60;;;1.20;;
77018;SDS011;66044;53.142;17.962;2023-07-13T08:23:15;4.80;;;1.00;;
77018;SDS011;66044;53.142;17.962;2023-07-13T08:25:42;7.30;;;1.30;;
77018;SDS011;66044;53.142;17.962;2023-07-13T08:28:16;5.20;;;1.00;;
77018;SDS011;66044;53.142;17.962;2023-07-13T08:30:42;6.10;;;0.90;;
77018;SDS011;66044;53.142;17.962;2023-07-13T08:33:09;5.20;;;0.80;;
77018;SDS011;66044;53.142;17.962;2023-07-13T08:35:35;4.60;;;0.90;;
77018;SDS011;66044;53.142;17.962;2023-07-13T08:38:01;5.10;;;0.90;;
77018;SDS011;66044;53.142;17.962;2023-07-13T08:40:28;3.70;;;0.70;;
77018;SDS011;66044;53.142;17.962;2023-07-13T08:42:56;4.90;;;0.60;;
77018;SDS011;66044;53.142;17.962;2023-07-13T08:48:09;4.50;;;0.90;;
77018;SDS011;66044;53.142;17.962;2023-07-13T08:50:44;3.70;;;0.90;;
77018;SDS011;66044;53.142;17.962;2023-07-13T08:53:17;3.80;;;0.80;;
77018;SDS011;66044;53.142;17.962;2023-07-13T08:55:45;5.30;;;0.90;;
77018;SDS011;66044;53.142;17.962;2023-07-13T08:58:12;8.10;;;1.30;;
77018;SDS011;66044;53.142;17.962;2023-07-13T09:00:54;7.50;;;1.70;;
77018;SDS011;66044;53.142;17.962;2023-07-13T09:03:30;5.20;;;1.20;;
77018;SDS011;66044;53.142;17.962;2023-07-13T09:06:03;4.60;;;0.90;;
77018;SDS011;66044;53.142;17.962;2023-07-13T09:08:38;8.20;;;1.70;;
77018;SDS011;66044;53.142;17.962;2023-07-13T09:16:58;10.80;;;4.50;;
77018;SDS011;66044;53.142;17.962;2023-07-13T09:19:28;25.70;;;16.70;;
77018;SDS011;66044;53.142;17.962;2023-07-13T09:21:59;22.50;;;13.10;;
77018;SDS011;66044;53.142;17.962;2023-07-13T09:24:37;15.70;;;8.30;;
77018;SDS011;66044;53.142;17.962;2023-07-13T09:27:23;12.10;;;6.40;;
77018;SDS011;66044;53.142;17.962;2023-07-13T09:32:36;12.70;;;6.20;;
77018;SDS011;66044;53.142;17.962;2023-07-13T09:35:09;13.00;;;3.40;;
77018;SDS011;66044;53.142;17.962;2023-07-13T09:37:38;9.70;;;3.10;;
77018;SDS011;66044;53.142;17.962;2023-07-13T09:40:10;7.10;;;2.00;;
77018;SDS011;66044;53.142;17.962;2023-07-13T09:42:53;7.20;;;2.30;;
77018;SDS011;66044;53.142;17.962;2023-07-13T09:45:26;14.30;;;4.10;;
77018;SDS011;66044;53.142;17.962;2023-07-13T09:48:05;6.90;;;1.20;;
77018;SDS011;66044;53.142;17.962;2023-07-13T09:50:34;5.90;;;1.80;;
77018;SDS011;66044;53.142;17.962;2023-07-13T09:53:01;9.90;;;1.10;;
77018;SDS011;66044;53.142;17.962;2023-07-13T09:58:04;5.40;;;0.80;;
77018;SDS011;66044;53.142;17.962;2023-07-13T10:00:37;5.40;;;0.90;;
77018;SDS011;66044;53.142;17.962;2023-07-13T10:06:22;6.20;;;1.00;;
77018;SDS011;66044;53.142;17.962;2023-07-13T10:08:49;4.40;;;1.00;;
77018;SDS011;66044;53.142;17.962;2023-07-13T10:11:22;5.40;;;0.80;;
77018;SDS011;66044;53.142;17.962;2023-07-13T10:13:57;4.20;;;0.90;;
77018;SDS011;66044;53.142;17.962;2023-07-13T10:16:30;4.70;;;0.90;;
77018;SDS011;66044;53.142;17.962;2023-07-13T10:19:03;4.40;;;0.70;;
77018;SDS011;66044;53.142;17.962;2023-07-13T10:21:55;3.10;;;0.70;;
77018;SDS011;66044;53.142;17.962;2023-07-13T10:24:29;5.30;;;0.90;;
77018;SDS011;66044;53.142;17.962;2023-07-13T10:29:38;5.60;;;1.20;;
77018;SDS011;66044;53.142;17.962;2023-07-13T10:32:09;6.30;;;1.20;;
77018;SDS011;66044;53.142;17.962;2023-07-13T10:34:38;5.30;;;0.90;;
77018;SDS011;66044;53.142;17.962;2023-07-13T10:37:07;3.70;;;0.80;;
77018;SDS011;66044;53.142;17.962;2023-07-13T10:39:43;4.60;;;0.80;;
77018;SDS011;66044;53.142;17.962;2023-07-13T10:42:11;3.80;;;0.80;;
77018;SDS011;66044;53.142;17.962;2023-07-13T10:44:44;4.30;;;1.10;;
77018;SDS011;66044;53.142;17.962;2023-07-13T10:47:12;3.40;;;0.80;;
77018;SDS011;66044;53.142;17.962;2023-07-13T10:49:41;4.10;;;0.80;;
77018;SDS011;66044;53.142;17.962;2023-07-13T10:52:37;5.40;;;0.90;;
77018;SDS011;66044;53.142;17.962;2023-07-13T10:55:29;3.90;;;1.00;;
77018;SDS011;66044;53.142;17.962;2023-07-13T10:57:59;4.90;;;0.90;;
77018;SDS011;66044;53.142;17.962;2023-07-13T11:00:30;3.30;;;0.70;;
77018;SDS011;66044;53.142;17.962;2023-07-13T11:02:59;5.30;;;1.00;;
77018;SDS011;66044;53.142;17.962;2023-07-13T11:05:31;2.90;;;0.60;;
77018;SDS011;66044;53.142;17.962;2023-07-13T11:08:51;3.00;;;0.70;;
77018;SDS011;66044;53.142;17.962;2023-07-13T11:10:59;3.50;;;0.80;;
77018;SDS011;66044;53.142;17.962;2023-07-13T11:13:55;3.50;;;0.80;;
77018;SDS011;66044;53.142;17.962;2023-07-13T11:18:52;4.40;;;1.10;;
77018;SDS011;66044;53.142;17.962;2023-07-13T11:21:27;4.10;;;0.90;;
77018;SDS011;66044;53.142;17.962;2023-07-13T11:26:59;3.20;;;0.80;;
77018;SDS011;66044;53.142;17.962;2023-07-13T11:31:59;5.50;;;1.00;;
77018;SDS011;66044;53.142;17.962;2023-07-13T11:34:31;5.00;;;1.10;;
77018;SDS011;66044;53.142;17.962;2023-07-13T11:37:02;3.90;;;0.90;;
77018;SDS011;66044;53.142;17.962;2023-07-13T11:39:30;6.20;;;1.10;;
77018;SDS011;66044;53.142;17.962;2023-07-13T11:42:00;3.90;;;1.00;;
77018;SDS011;66044;53.142;17.962;2023-07-13T11:44:29;5.30;;;1.00;;
77018;SDS011;66044;53.142;17.962;2023-07-13T11:47:00;6.10;;;1.40;;
77018;SDS011;66044;53.142;17.962;2023-07-13T11:49:40;5.50;;;1.10;;
77018;SDS011;66044;53.142;17.962;2023-07-13T11:52:11;4.00;;;1.10;;
77018;SDS011;66044;53.142;17.962;2023-07-13T11:54:50;4.20;;;1.10;;
77018;SDS011;66044;53.142;17.962;2023-07-13T11:59:57;4.90;;;1.30;;
77018;SDS011;66044;53.142;17.962;2023-07-13T12:02:34;4.60;;;1.30;;
77018;SDS011;66044;53.142;17.962;2023-07-13T12:05:04;3.50;;;1.10;;
77018;SDS011;66044;53.142;17.962;2023-07-13T12:07:33;5.90;;;1.00;;
77018;SDS011;66044;53.142;17.962;2023-07-13T12:10:00;4.90;;;1.30;;
77018;SDS011;66044;53.142;17.962;2023-07-13T12:12:36;4.70;;;1.20;;
77018;SDS011;66044;53.142;17.962;2023-07-13T12:15:06;3.80;;;1.20;;
77018;SDS011;66044;53.142;17.962;2023-07-13T12:17:34;4.80;;;0.90;;
77018;SDS011;66044;53.142;17.962;2023-07-13T12:20:03;5.10;;;1.00;;
77018;SDS011;66044;53.142;17.962;2023-07-13T12:22:47;5.20;;;1.00;;
77018;SDS011;66044;53.142;17.962;2023-07-13T12:25:15;10.50;;;1.40;;
77018;SDS011;66044;53.142;17.962;2023-07-13T12:27:46;5.00;;;1.10;;
77018;SDS011;66044;53.142;17.962;2023-07-13T12:30:26;5.40;;;1.00;;
77018;SDS011;66044;53.142;17.962;2023-07-13T12:32:58;4.30;;;1.00;;
77018;SDS011;66044;53.142;17.962;2023-07-13T12:35:47;3.40;;;0.90;;
77018;SDS011;66044;53.142;17.962;2023-07-13T12:38:15;5.00;;;1.20;;
77018;SDS011;66044;53.142;17.962;2023-07-13T12:40:43;3.40;;;1.00;;
77018;SDS011;66044;53.142;17.962;2023-07-13T12:43:12;6.20;;;1.30;;
77018;SDS011;66044;53.142;17.962;2023-07-13T12:48:24;4.70;;;0.90;;
77018;SDS011;66044;53.142;17.962;2023-07-13T12:50:51;5.70;;;1.10;;
77018;SDS011;66044;53.142;17.962;2023-07-13T12:53:21;6.30;;;1.30;;
77018;SDS011;66044;53.142;17.962;2023-07-13T12:55:55;6.00;;;1.40;;
77018;SDS011;66044;53.142;17.962;2023-07-13T12:58:26;3.60;;;0.80;;
77018;SDS011;66044;53.142;17.962;2023-07-13T13:01:05;3.90;;;1.00;;
77018;SDS011;66044;53.142;17.962;2023-07-13T13:03:33;4.90;;;1.10;;
77018;SDS011;66044;53.142;17.962;2023-07-13T13:06:03;5.80;;;0.90;;
77018;SDS011;66044;53.142;17.962;2023-07-13T13:08:54;5.20;;;1.50;;
77018;SDS011;66044;53.142;17.962;2023-07-13T13:11:25;4.60;;;1.30;;
77018;SDS011;66044;53.142;17.962;2023-07-13T13:13:54;4.20;;;0.90;;
77018;SDS011;66044;53.142;17.962;2023-07-13T13:16:31;5.90;;;1.20;;
77018;SDS011;66044;53.142;17.962;2023-07-13T13:19:13;3.40;;;0.90;;
77018;SDS011;66044;53.142;17.962;2023-07-13T13:22:01;5.60;;;1.40;;
77018;SDS011;66044;53.142;17.962;2023-07-13T13:24:29;5.00;;;1.20;;
77018;SDS011;66044;53.142;17.962;2023-07-13T13:26:56;4.10;;;1.20;;
77018;SDS011;66044;53.142;17.962;2023-07-13T13:29:24;4.10;;;0.90;;
77018;SDS011;66044;53.142;17.962;2023-07-13T13:31:51;7.80;;;1.40;;
77018;SDS011;66044;53.142;17.962;2023-07-13T13:34:18;4.00;;;1.20;;
77018;SDS011;66044;53.142;17.962;2023-07-13T13:36:49;5.40;;;1.40;;
77018;SDS011;66044;53.142;17.962;2023-07-13T13:39:52;4.70;;;1.20;;
77018;SDS011;66044;53.142;17.962;2023-07-13T13:42:11;5.00;;;1.20;;
77018;SDS011;66044;53.142;17.962;2023-07-13T13:44:37;4.70;;;0.90;;
77018;SDS011;66044;53.142;17.962;2023-07-13T13:47:04;5.70;;;1.30;;
77018;SDS011;66044;53.142;17.962;2023-07-13T13:49:30;4.00;;;0.90;;
77018;SDS011;66044;53.142;17.962;2023-07-13T13:51:57;5.10;;;1.10;;
77018;SDS011;66044;53.142;17.962;2023-07-13T13:54:24;4.70;;;1.10;;
77018;SDS011;66044;53.142;17.962;2023-07-13T13:56:52;3.80;;;0.90;;
77018;SDS011;66044;53.142;17.962;2023-07-13T13:59:19;3.30;;;1.00;;
77018;SDS011;66044;53.142;17.962;2023-07-13T14:01:46;4.80;;;0.80;;
77018;SDS011;66044;53.142;17.962;2023-07-13T14:04:16;5.60;;;1.00;;
77018;SDS011;66044;53.142;17.962;2023-07-13T14:06:44;3.80;;;0.90;;
77018;SDS011;66044;53.142;17.962;2023-07-13T14:09:12;4.10;;;1.00;;
77018;SDS011;66044;53.142;17.962;2023-07-13T14:11:41;4.20;;;0.80;;
77018;SDS011;66044;53.142;17.962;2023-07-13T14:14:12;3.30;;;0.80;;
77018;SDS011;66044;53.142;17.962;2023-07-13T14:16:45;3.30;;;0.70;;
77018;SDS011;66044;53.142;17.962;2023-07-13T14:19:19;3.40;;;0.80;;
77018;SDS011;66044;53.142;17.962;2023-07-13T14:21:46;3.20;;;0.80;;
77018;SDS011;66044;53.142;17.962;2023-07-13T14:24:13;5.70;;;0.90;;
77018;SDS011;66044;53.142;17.962;2023-07-13T14:26:40;3.90;;;0.90;;
77018;SDS011;66044;53.142;17.962;2023-07-13T14:29:16;3.10;;;0.50;;
77018;SDS011;66044;53.142;17.962;2023-07-13T14:31:45;2.80;;;0.60;;
77018;SDS011;66044;53.142;17.962;2023-07-13T14:34:12;5.10;;;0.90;;
77018;SDS011;66044;53.142;17.962;2023-07-13T14:36:45;3.60;;;0.80;;
77018;SDS011;66044;53.142;17.962;2023-07-13T14:39:17;3.40;;;0.60;;
77018;SDS011;66044;53.142;17.962;2023-07-13T14:41:45;3.30;;;0.70;;
77018;SDS011;66044;53.142;17.962;2023-07-13T14:44:21;3.80;;;0.70;;
77018;SDS011;66044;53.142;17.962;2023-07-13T14:46:53;3.00;;;0.60;;
77018;SDS011;66044;53.142;17.962;2023-07-13T14:49:27;3.70;;;0.80;;
77018;SDS011;66044;53.142;17.962;2023-07-13T14:52:01;3.30;;;0.80;;
77018;SDS011;66044;53.142;17.962;2023-07-13T14:54:35;3.90;;;0.70;;
77018;SDS011;66044;53.142;17.962;2023-07-13T14:57:03;10.00;;;1.40;;
77018;SDS011;66044;53.142;17.962;2023-07-13T14:59:30;6.40;;;1.30;;
77018;SDS011;66044;53.142;17.962;2023-07-13T15:01:57;4.40;;;1.20;;
77018;SDS011;66044;53.142;17.962;2023-07-13T15:04:23;3.60;;;0.70;;
77018;SDS011;66044;53.142;17.962;2023-07-13T15:06:57;14.00;;;3.10;;
77018;SDS011;66044;53.142;17.962;2023-07-13T15:09:25;23.80;;;4.00;;
77018;SDS011;66044;53.142;17.962;2023-07-13T15:11:57;7.40;;;1.20;;
77018;SDS011;66044;53.142;17.962;2023-07-13T15:14:28;4.90;;;1.00;;
77018;SDS011;66044;53.142;17.962;2023-07-13T15:16:55;6.30;;;0.80;;
77018;SDS011;66044;53.142;17.962;2023-07-13T15:19:22;4.00;;;0.70;;